Cardwell, Missouri
Current Conditions -  °F | °C
As of 2:35 PM on Wednesday 26 Nov 2014 (Local Time) from K4M9 Reporting Station
NA  
Wind Chill: 36°   Ceiling: NA
Heat Index: 43°   Visibility: 10mi
Dew Point: 37°   Wind: 14mph
Humidity: 81%   Direction: 300°WNW
Pressure: 30.02"   Gusts: NA
Location:  36.05°N, 90.29°W
Report Text: K4M9 262035Z AUTO 30012KT 10SM 06/03 A3002 RMK AO2
Loading
Personal Weather Stations






























Interactive Weather Map New forecast layout! Learn more

10-Day Weather Forecast

Advertisements
Track Severe Weather on mobile